Terminal Aerodrome Forecast
Issued by NWS

Home | Current Version | Previous Version | Text Only | Print | Product List | Glossary On
Versions: 1 2 3 4 5 6 7 8 9 10 11 12 13 14 15 16 17 18 19
000
FTUS43 KILX 250500
TAFBMI
TAF
KBMI 250520Z 2506/2606 16007KT P6SM VCSH FEW001 BKN040
     FM250800 26010KT 6SM -RADZ SCT007 OVC010
     FM251500 31014G22KT P6SM SCT010
     FM251700 30012KT P6SM SKC
     FM252100 27012KT P6SM SCT250
     FM260000 22010KT P6SM SCT250=

USA.gov is the U.S. government's official web portal to all federal, state and local government web resources and services.